createdAt,value
2019-02-24T00:01:06.960Z,33.60
2019-02-24T00:03:32.902Z,33.70
2019-02-24T00:05:58.869Z,33.60
2019-02-24T00:08:24.816Z,33.70
2019-02-24T00:10:50.781Z,33.60
2019-02-24T00:13:16.743Z,33.80
2019-02-24T00:15:42.807Z,33.70
2019-02-24T00:18:08.823Z,33.80
2019-02-24T00:20:34.858Z,33.90
2019-02-24T00:23:00.797Z,33.80
2019-02-24T00:25:26.746Z,33.80
2019-02-24T00:27:52.703Z,33.90
2019-02-24T00:30:18.956Z,33.80
2019-02-24T00:32:44.911Z,33.90
2019-02-24T00:35:10.871Z,33.90
2019-02-24T00:37:36.840Z,33.90
2019-02-24T00:40:02.788Z,34.10
2019-02-24T00:42:29.551Z,34.10
2019-02-24T00:44:55.582Z,34.00
2019-02-24T00:47:21.717Z,34.30
2019-02-24T00:49:47.764Z,34.20
2019-02-24T00:52:13.895Z,34.10
2019-02-24T00:54:39.890Z,34.20
2019-02-24T00:57:05.831Z,34.40
2019-02-24T00:59:31.764Z,34.50
2019-02-24T01:01:57.724Z,34.20
2019-02-24T01:04:23.682Z,34.40
2019-02-24T01:06:49.635Z,34.40
2019-02-24T01:09:15.576Z,34.40
2019-02-24T01:11:41.539Z,34.00
2019-02-24T01:14:07.488Z,34.40
2019-02-24T01:16:33.436Z,34.40
2019-02-24T01:18:59.393Z,34.30
2019-02-24T01:21:25.322Z,34.30
2019-02-24T01:23:51.306Z,34.40
2019-02-24T01:26:17.259Z,34.40
2019-02-24T01:28:43.198Z,34.40
2019-02-24T01:31:09.163Z,34.40
2019-02-24T01:33:35.220Z,34.40
2019-02-24T01:36:01.182Z,34.50
2019-02-24T01:38:27.129Z,34.50
2019-02-24T01:40:53.087Z,34.50
2019-02-24T01:43:19.048Z,34.50
2019-02-24T01:45:45.028Z,34.50
2019-02-24T01:48:11.058Z,34.60
2019-02-24T01:50:37.042Z,34.60
2019-02-24T01:53:02.995Z,34.60
2019-02-24T01:55:28.936Z,34.50
2019-02-24T01:57:54.912Z,34.60
2019-02-24T02:00:20.863Z,34.60
2019-02-24T02:02:46.804Z,34.50
2019-02-24T02:05:12.733Z,34.70
2019-02-24T02:07:38.679Z,34.60
2019-02-24T02:10:04.610Z,35.10
2019-02-24T02:12:36.301Z,34.60
2019-02-24T02:15:02.263Z,34.60
2019-02-24T02:17:28.559Z,34.60
2019-02-24T02:19:54.506Z,34.70
2019-02-24T02:22:20.485Z,34.70
2019-02-24T02:24:46.416Z,33.50
2019-02-24T02:27:12.390Z,34.70
2019-02-24T02:29:38.337Z,34.50
2019-02-24T02:32:04.286Z,34.70
2019-02-24T02:34:30.235Z,34.70
2019-02-24T02:36:56.187Z,34.70
2019-02-24T02:39:22.158Z,34.60
2019-02-24T02:41:48.223Z,34.60
2019-02-24T02:44:16.570Z,34.60
2019-02-24T02:46:42.526Z,34.60
2019-02-24T02:49:08.492Z,34.60
2019-02-24T02:51:34.447Z,34.70
2019-02-24T02:54:00.403Z,34.40
2019-02-24T02:56:26.370Z,34.40
2019-02-24T02:58:54.610Z,34.60
2019-02-24T03:01:20.191Z,34.50
2019-02-24T03:03:46.140Z,34.50
2019-02-24T03:06:16.768Z,34.60
2019-02-24T03:08:47.117Z,34.50
2019-02-24T03:11:13.143Z,34.40
2019-02-24T03:13:39.067Z,34.50
2019-02-24T03:16:05.070Z,34.40
2019-02-24T03:18:31.100Z,34.50
2019-02-24T03:20:57.049Z,34.50
2019-02-24T03:23:22.988Z,34.50
2019-02-24T03:25:49.056Z,34.40
2019-02-24T03:28:15.329Z,34.50
2019-02-24T03:30:41.409Z,34.50
2019-02-24T03:33:07.347Z,34.50
2019-02-24T03:35:33.310Z,34.50
2019-02-24T03:37:59.285Z,34.50
2019-02-24T03:40:25.251Z,34.70
2019-02-24T03:42:51.236Z,34.60
2019-02-24T03:45:17.383Z,34.50
2019-02-24T03:47:43.851Z,34.60
2019-02-24T03:50:10.015Z,34.60
2019-02-24T03:52:36.748Z,34.50
2019-02-24T03:55:02.910Z,34.60
2019-02-24T03:57:28.908Z,34.40
2019-02-24T03:59:54.915Z,34.50
2019-02-24T04:02:21.414Z,34.00
2019-02-24T04:04:49.336Z,34.50
2019-02-24T04:07:15.322Z,34.50
2019-02-24T04:09:41.278Z,34.40
2019-02-24T04:12:07.819Z,34.40
2019-02-24T04:14:33.862Z,34.40
2019-02-24T04:16:59.842Z,34.40
2019-02-24T04:19:25.781Z,34.30
2019-02-24T04:21:51.754Z,34.40
2019-02-24T04:24:17.825Z,34.50
2019-02-24T04:26:43.753Z,34.30
2019-02-24T04:29:09.676Z,34.40
2019-02-24T04:31:35.641Z,34.30
2019-02-24T04:34:01.600Z,34.20
2019-02-24T04:36:27.546Z,34.30
2019-02-24T04:38:53.477Z,34.20
2019-02-24T04:41:19.420Z,34.20
2019-02-24T04:43:45.364Z,34.10
2019-02-24T04:46:11.313Z,34.10
2019-02-24T04:48:37.274Z,34.30
2019-02-24T04:51:03.229Z,34.10
2019-02-24T04:53:29.197Z,34.10
2019-02-24T04:55:55.166Z,34.10
2019-02-24T04:58:21.218Z,34.10
2019-02-24T05:00:47.194Z,34.10
2019-02-24T05:03:13.227Z,34.10
2019-02-24T05:05:39.274Z,34.00
2019-02-24T05:08:05.232Z,34.00
2019-02-24T05:10:31.277Z,34.00
2019-02-24T05:12:57.231Z,34.00
2019-02-24T05:15:23.276Z,34.00
2019-02-24T05:17:49.204Z,34.00
2019-02-24T05:20:15.140Z,34.20
2019-02-24T05:22:41.102Z,34.10
2019-02-24T05:25:07.030Z,34.10
2019-02-24T05:27:32.980Z,34.00
2019-02-24T05:29:58.903Z,34.20
2019-02-24T05:32:25.507Z,34.00
2019-02-24T05:34:51.437Z,34.00
2019-02-24T05:37:17.397Z,33.80
2019-02-24T05:39:43.331Z,33.90
2019-02-24T05:42:09.302Z,33.90
2019-02-24T05:44:35.249Z,33.80
2019-02-24T05:47:01.236Z,33.80
2019-02-24T05:49:27.199Z,33.90
2019-02-24T05:51:53.164Z,33.80
2019-02-24T05:54:19.124Z,33.80
2019-02-24T05:56:45.076Z,33.80
2019-02-24T05:59:11.017Z,33.80
2019-02-24T06:01:36.956Z,33.80
2019-02-24T06:04:02.910Z,33.80
2019-02-24T06:06:28.842Z,33.60
2019-02-24T06:08:54.806Z,33.70
2019-02-24T06:11:20.764Z,33.80
2019-02-24T06:13:46.722Z,33.70
2019-02-24T06:16:12.676Z,33.80
2019-02-24T06:18:38.754Z,33.80
2019-02-24T06:21:04.686Z,33.70
2019-02-24T06:23:30.630Z,34.30
2019-02-24T06:25:56.579Z,33.80
2019-02-24T06:28:22.522Z,33.80
2019-02-24T06:30:48.469Z,33.80
2019-02-24T06:33:14.421Z,33.60
2019-02-24T06:35:40.394Z,33.50
2019-02-24T06:38:06.356Z,33.40
2019-02-24T06:40:32.422Z,33.30
2019-02-24T06:42:58.355Z,33.30
2019-02-24T06:45:24.324Z,33.40
2019-02-24T06:47:50.396Z,33.50
2019-02-24T06:50:16.330Z,33.60
2019-02-24T06:52:42.309Z,33.70
2019-02-24T06:55:08.264Z,33.70
2019-02-24T06:57:34.218Z,33.80
2019-02-24T07:00:00.265Z,33.80
2019-02-24T07:02:27.038Z,33.80
2019-02-24T07:04:52.984Z,33.90
2019-02-24T07:07:18.942Z,34.00
2019-02-24T07:09:44.890Z,34.00
2019-02-24T07:12:10.848Z,34.30
2019-02-24T07:14:36.803Z,34.30
2019-02-24T07:17:02.792Z,34.30
2019-02-24T07:19:28.736Z,34.50
2019-02-24T07:21:54.717Z,34.50
2019-02-24T07:24:20.665Z,34.60
2019-02-24T07:26:46.628Z,34.60
2019-02-24T07:29:12.571Z,34.40
2019-02-24T07:31:38.517Z,34.40
2019-02-24T07:34:04.472Z,34.80
2019-02-24T07:36:30.421Z,35.00
2019-02-24T07:38:56.385Z,34.90
2019-02-24T07:41:22.423Z,34.80
2019-02-24T07:43:48.380Z,35.00
2019-02-24T07:46:14.444Z,35.10
2019-02-24T07:48:40.499Z,35.10
2019-02-24T07:51:06.436Z,35.30
2019-02-24T07:53:32.437Z,35.20
2019-02-24T07:55:58.372Z,35.30
2019-02-24T07:58:24.360Z,35.20
2019-02-24T08:00:50.331Z,35.30
2019-02-24T08:03:16.295Z,35.20
2019-02-24T08:05:42.245Z,35.20
2019-02-24T08:08:16.262Z,35.30
2019-02-24T08:10:36.083Z,35.30
2019-02-24T08:13:02.038Z,35.30
2019-02-24T08:15:28.097Z,35.20
2019-02-24T08:17:54.054Z,35.10
2019-02-24T08:20:20.027Z,35.00
2019-02-24T08:22:46.434Z,35.00
2019-02-24T08:25:12.404Z,34.90
2019-02-24T08:27:38.374Z,34.80
2019-02-24T08:30:04.451Z,34.70
2019-02-24T08:32:31.121Z,34.80
2019-02-24T08:34:57.104Z,34.80
2019-02-24T08:37:23.140Z,34.80
2019-02-24T08:39:49.111Z,34.90
2019-02-24T08:42:15.049Z,35.00
2019-02-24T08:44:40.991Z,35.10
2019-02-24T08:47:06.945Z,35.20
2019-02-24T08:49:32.977Z,35.00
2019-02-24T08:51:58.919Z,35.10
2019-02-24T08:54:24.865Z,35.00
2019-02-24T08:56:50.805Z,35.00
2019-02-24T08:59:16.779Z,34.90
2019-02-24T09:01:42.753Z,34.70
2019-02-24T09:04:08.709Z,34.70
2019-02-24T09:06:34.690Z,34.70
2019-02-24T09:09:00.641Z,34.70
2019-02-24T09:11:26.618Z,35.30
2019-02-24T09:13:52.567Z,34.70
2019-02-24T09:16:18.529Z,34.70
2019-02-24T09:18:44.570Z,34.60
2019-02-24T09:21:10.527Z,34.50
2019-02-24T09:23:36.467Z,34.50
2019-02-24T09:26:02.425Z,34.60
2019-02-24T09:28:28.382Z,34.50
2019-02-24T09:31:00.395Z,34.50
2019-02-24T09:33:22.169Z,34.70
2019-02-24T09:35:48.110Z,34.50
2019-02-24T09:38:14.137Z,34.50
2019-02-24T09:40:40.063Z,35.10
2019-02-24T09:43:06.007Z,34.50
2019-02-24T09:45:31.940Z,34.50
2019-02-24T09:47:57.875Z,34.50
2019-02-24T09:50:23.844Z,34.40
2019-02-24T09:52:50.399Z,34.30
2019-02-24T09:55:16.364Z,34.30
2019-02-24T09:57:42.309Z,35.00
2019-02-24T10:00:08.284Z,34.30
2019-02-24T10:02:34.221Z,34.20
2019-02-24T10:05:00.231Z,34.20
2019-02-24T10:07:26.269Z,34.20
2019-02-24T10:09:53.176Z,34.20
2019-02-24T10:12:19.390Z,34.30
2019-02-24T10:14:45.405Z,34.30
2019-02-24T10:17:11.348Z,34.30
2019-02-24T10:19:37.330Z,34.30
2019-02-24T10:22:03.289Z,34.30
2019-02-24T10:24:29.258Z,34.90
2019-02-24T10:26:55.220Z,34.20
2019-02-24T10:29:21.177Z,34.10
2019-02-24T10:31:47.170Z,34.10
2019-02-24T10:34:13.273Z,34.10
2019-02-24T10:36:39.227Z,34.00
2019-02-24T10:39:05.164Z,34.00
2019-02-24T10:41:31.165Z,33.90
2019-02-24T10:43:57.111Z,33.90
2019-02-24T10:46:23.063Z,33.90
2019-02-24T10:48:49.026Z,33.90
2019-02-24T10:51:14.975Z,33.80
2019-02-24T10:53:41.050Z,33.80
2019-02-24T10:56:07.027Z,33.70
2019-02-24T10:58:34.953Z,33.40
2019-02-24T11:01:00.825Z,33.20
2019-02-24T11:03:26.801Z,33.00
2019-02-24T11:05:52.863Z,32.80
2019-02-24T11:08:18.813Z,32.70
2019-02-24T11:10:44.756Z,32.50
2019-02-24T11:13:10.696Z,32.40
2019-02-24T11:15:36.652Z,32.30
2019-02-24T11:18:02.640Z,32.20
2019-02-24T11:20:28.606Z,31.90
2019-02-24T11:22:54.569Z,31.70
2019-02-24T11:25:20.527Z,31.70
2019-02-24T11:27:46.488Z,31.70
2019-02-24T11:30:12.468Z,31.60
2019-02-24T11:32:38.529Z,31.60
2019-02-24T11:35:04.502Z,31.70
2019-02-24T11:37:32.360Z,31.80
2019-02-24T11:39:58.313Z,32.00
2019-02-24T11:42:24.362Z,32.40
2019-02-24T11:44:50.314Z,32.60
2019-02-24T11:47:16.268Z,32.90
2019-02-24T11:49:42.232Z,32.90
2019-02-24T11:52:08.187Z,33.00
2019-02-24T11:54:34.235Z,33.00
2019-02-24T11:57:00.186Z,33.00
2019-02-24T11:59:26.139Z,33.10
2019-02-24T12:01:52.200Z,33.00
2019-02-24T12:04:18.183Z,32.80
2019-02-24T12:06:44.202Z,32.70
2019-02-24T12:09:10.150Z,32.70
2019-02-24T12:11:36.130Z,32.60
2019-02-24T12:14:02.080Z,32.40
2019-02-24T12:16:28.030Z,32.30
2019-02-24T12:18:54.008Z,32.30
2019-02-24T12:21:19.951Z,32.00
2019-02-24T12:23:45.908Z,31.60
2019-02-24T12:26:11.962Z,32.00
2019-02-24T12:28:37.954Z,32.00
2019-02-24T12:31:04.005Z,32.20
2019-02-24T12:33:29.971Z,32.40
2019-02-24T12:35:56.055Z,32.50
2019-02-24T12:38:22.107Z,32.60
2019-02-24T12:40:48.311Z,32.60
2019-02-24T12:43:14.280Z,32.60
2019-02-24T12:45:40.333Z,32.80
2019-02-24T12:48:06.301Z,32.80
2019-02-24T12:50:32.358Z,32.90
2019-02-24T12:52:58.313Z,33.10
2019-02-24T12:55:24.280Z,33.30
2019-02-24T12:57:50.257Z,33.30
2019-02-24T13:00:16.633Z,33.40
2019-02-24T13:02:42.689Z,33.50
2019-02-24T13:05:08.636Z,33.60
2019-02-24T13:07:34.574Z,33.70
2019-02-24T13:10:00.551Z,33.80
2019-02-24T13:12:26.731Z,33.70
2019-02-24T13:14:52.785Z,33.90
2019-02-24T13:17:18.725Z,33.70
2019-02-24T13:19:44.687Z,33.70
2019-02-24T13:22:10.758Z,33.70
2019-02-24T13:24:36.825Z,33.30
2019-02-24T13:27:02.881Z,33.70
2019-02-24T13:29:28.930Z,33.80
2019-02-24T13:31:54.918Z,33.70
2019-02-24T13:34:21.088Z,33.80
2019-02-24T13:36:47.197Z,33.70
2019-02-24T13:39:13.254Z,33.80
2019-02-24T13:41:39.219Z,33.80
2019-02-24T13:44:05.162Z,34.40
2019-02-24T13:46:31.128Z,34.00
2019-02-24T13:48:57.095Z,34.10
2019-02-24T13:51:23.158Z,34.10
2019-02-24T13:53:49.123Z,34.40
2019-02-24T13:56:15.081Z,34.30
2019-02-24T13:58:41.037Z,34.40
2019-02-24T14:01:06.990Z,34.30
2019-02-24T14:03:33.030Z,34.30
2019-02-24T14:05:58.996Z,34.40
2019-02-24T14:08:25.013Z,34.40
2019-02-24T14:10:50.977Z,33.80
2019-02-24T14:13:16.925Z,33.70
2019-02-24T14:15:42.883Z,33.90
2019-02-24T14:18:08.834Z,34.00
2019-02-24T14:20:34.800Z,34.10
2019-02-24T14:23:00.765Z,34.00
2019-02-24T14:25:26.735Z,34.90
2019-02-24T14:27:52.703Z,34.20
2019-02-24T14:30:18.692Z,34.30
2019-02-24T14:32:44.756Z,34.20
2019-02-24T14:35:10.851Z,34.30
2019-02-24T14:37:36.885Z,34.40
2019-02-24T14:40:02.866Z,34.30
2019-02-24T14:42:35.035Z,34.40
2019-02-24T14:45:01.038Z,34.30
2019-02-24T14:47:27.112Z,34.40
2019-02-24T14:49:53.215Z,34.40
2019-02-24T14:52:19.268Z,34.30
2019-02-24T14:54:45.246Z,34.50
2019-02-24T14:57:11.229Z,34.60
2019-02-24T14:59:37.210Z,34.60
2019-02-24T15:02:03.155Z,34.50
2019-02-24T15:04:29.100Z,34.60
2019-02-24T15:06:55.156Z,34.50
2019-02-24T15:09:21.120Z,34.50
2019-02-24T15:11:47.083Z,34.50
2019-02-24T15:14:13.044Z,34.50
2019-02-24T15:16:39.013Z,34.60
2019-02-24T15:19:04.982Z,34.50
2019-02-24T15:21:31.031Z,34.70
2019-02-24T15:23:56.981Z,34.70
2019-02-24T15:26:22.956Z,34.70
2019-02-24T15:28:48.896Z,34.70
2019-02-24T15:31:14.867Z,34.70
2019-02-24T15:33:40.824Z,34.70
2019-02-24T15:36:06.806Z,34.70
2019-02-24T15:38:32.774Z,34.70
2019-02-24T15:40:58.849Z,34.60
2019-02-24T15:43:24.797Z,34.60
2019-02-24T15:45:50.753Z,34.60
2019-02-24T15:48:16.699Z,34.50
2019-02-24T15:50:42.632Z,35.20
2019-02-24T15:53:08.610Z,34.40
2019-02-24T15:55:34.554Z,34.50
2019-02-24T15:58:00.508Z,34.10
2019-02-24T16:00:26.476Z,33.90
2019-02-24T16:03:01.101Z,33.90
2019-02-24T16:05:20.314Z,34.10
2019-02-24T16:07:46.269Z,34.30
2019-02-24T16:10:12.222Z,34.50
2019-02-24T16:12:39.132Z,34.10
2019-02-24T16:15:05.095Z,33.40
2019-02-24T16:17:31.029Z,33.10
2019-02-24T16:19:56.990Z,33.50
2019-02-24T16:22:22.928Z,33.50
2019-02-24T16:24:48.879Z,33.70
2019-02-24T16:27:14.829Z,33.80
2019-02-24T16:29:40.882Z,34.00
2019-02-24T16:32:06.843Z,34.00
2019-02-24T16:34:32.784Z,34.10
2019-02-24T16:36:58.722Z,34.10
2019-02-24T16:39:24.696Z,34.00
2019-02-24T16:41:50.662Z,34.10
2019-02-24T16:44:16.653Z,34.10
2019-02-24T16:46:42.612Z,34.00
2019-02-24T16:49:08.588Z,33.70
2019-02-24T16:51:34.547Z,33.40
2019-02-24T16:54:00.487Z,33.40
2019-02-24T16:56:26.473Z,33.40
2019-02-24T16:58:52.428Z,33.30
2019-02-24T17:01:18.727Z,33.20
2019-02-24T17:03:44.784Z,33.30
2019-02-24T17:06:10.735Z,33.30
2019-02-24T17:08:36.677Z,33.50
2019-02-24T17:11:07.450Z,33.50
2019-02-24T17:13:30.601Z,33.50
2019-02-24T17:15:56.575Z,33.70
2019-02-24T17:18:22.518Z,33.80
2019-02-24T17:20:48.505Z,34.00
2019-02-24T17:23:14.445Z,34.40
2019-02-24T17:25:40.406Z,34.70
2019-02-24T17:28:06.359Z,34.80
2019-02-24T17:30:32.334Z,34.90
2019-02-24T17:32:58.388Z,35.00
2019-02-24T17:35:24.352Z,35.20
2019-02-24T17:37:50.337Z,35.30
2019-02-24T17:40:16.289Z,35.30
2019-02-24T17:42:42.327Z,35.30
2019-02-24T17:45:08.279Z,35.30
2019-02-24T17:47:34.391Z,35.30
2019-02-24T17:50:00.384Z,35.30
2019-02-24T17:52:27.270Z,35.30
2019-02-24T17:54:53.209Z,35.20
2019-02-24T17:57:19.301Z,35.10
2019-02-24T17:59:45.358Z,35.30
2019-02-24T18:02:11.309Z,35.30
2019-02-24T18:04:37.269Z,35.30
2019-02-24T18:07:03.223Z,35.40
2019-02-24T18:09:29.211Z,35.40
2019-02-24T18:11:55.263Z,35.30
2019-02-24T18:14:21.253Z,35.30
2019-02-24T18:16:47.193Z,35.40
2019-02-24T18:19:13.181Z,36.00
2019-02-24T18:21:39.232Z,35.30
2019-02-24T18:24:05.527Z,34.90
2019-02-24T18:26:31.474Z,34.80
2019-02-24T18:28:57.437Z,34.70
2019-02-24T18:31:23.424Z,34.60
2019-02-24T18:33:49.481Z,34.60
2019-02-24T18:36:15.427Z,34.60
2019-02-24T18:38:41.380Z,34.50
2019-02-24T18:41:07.343Z,34.50
2019-02-24T18:43:33.324Z,34.50
2019-02-24T18:45:59.280Z,34.50
2019-02-24T18:48:25.221Z,34.40
2019-02-24T18:50:51.191Z,34.30
2019-02-24T18:53:17.131Z,34.40
2019-02-24T18:55:43.076Z,34.40
2019-02-24T18:58:09.125Z,34.30
2019-02-24T19:00:35.113Z,34.40
2019-02-24T19:03:01.161Z,34.40
2019-02-24T19:05:27.102Z,34.30
2019-02-24T19:07:53.090Z,34.60
2019-02-24T19:10:21.136Z,34.50
2019-02-24T19:12:46.918Z,34.50
2019-02-24T19:15:12.902Z,34.40
2019-02-24T19:17:38.951Z,34.50
2019-02-24T19:20:04.897Z,34.50
2019-02-24T19:22:31.820Z,34.50
2019-02-24T19:24:57.892Z,34.30
2019-02-24T19:27:23.870Z,34.50
2019-02-24T19:29:49.908Z,34.50
2019-02-24T19:32:15.916Z,34.50
2019-02-24T19:34:41.855Z,34.50
2019-02-24T19:37:08.000Z,34.50
2019-02-24T19:39:33.978Z,34.50
2019-02-24T19:41:59.920Z,34.50
2019-02-24T19:44:25.906Z,34.60
2019-02-24T19:46:51.971Z,34.50
2019-02-24T19:49:17.927Z,34.50
2019-02-24T19:51:43.972Z,34.50
2019-02-24T19:54:10.007Z,34.40
2019-02-24T19:56:35.962Z,35.00
2019-02-24T19:59:01.900Z,34.30
2019-02-24T20:01:27.881Z,34.90
2019-02-24T20:03:53.950Z,34.30
2019-02-24T20:06:20.026Z,34.20
2019-02-24T20:08:46.089Z,34.20
2019-02-24T20:11:12.065Z,34.40
2019-02-24T20:13:38.096Z,34.20
2019-02-24T20:16:04.067Z,34.30
2019-02-24T20:18:30.137Z,34.30
2019-02-24T20:20:56.110Z,34.30
2019-02-24T20:23:22.062Z,34.30
2019-02-24T20:25:48.137Z,34.20
2019-02-24T20:28:14.083Z,34.30
2019-02-24T20:30:40.058Z,34.20
2019-02-24T20:33:06.020Z,34.20
2019-02-24T20:35:32.029Z,34.80
2019-02-24T20:38:17.944Z,34.20
2019-02-24T20:40:43.993Z,34.10
2019-02-24T20:43:09.968Z,34.80
2019-02-24T20:45:36.028Z,34.20
2019-02-24T20:48:01.998Z,34.30
2019-02-24T20:50:28.060Z,34.30
2019-02-24T20:52:54.046Z,34.20
2019-02-24T20:55:20.105Z,34.20
2019-02-24T20:57:46.078Z,34.20
2019-02-24T21:00:12.053Z,34.20
2019-02-24T21:02:38.902Z,34.10
2019-02-24T21:05:05.205Z,34.00
2019-02-24T21:07:31.213Z,34.00
2019-02-24T21:09:57.214Z,33.90
2019-02-24T21:12:23.212Z,34.00
2019-02-24T21:14:49.272Z,34.00
2019-02-24T21:17:15.309Z,34.00
2019-02-24T21:19:41.298Z,34.00
2019-02-24T21:22:07.396Z,34.00
2019-02-24T21:24:33.446Z,34.00
2019-02-24T21:26:59.508Z,34.10
2019-02-24T21:29:25.465Z,34.10
2019-02-24T21:31:51.757Z,34.10
2019-02-24T21:34:18.093Z,34.30
2019-02-24T21:36:44.121Z,34.20
2019-02-24T21:39:10.100Z,34.20
2019-02-24T21:41:36.147Z,34.20
2019-02-24T21:44:02.100Z,34.20
2019-02-24T21:46:28.065Z,34.10
2019-02-24T21:48:54.048Z,34.10
2019-02-24T21:51:20.042Z,34.10
2019-02-24T21:53:46.301Z,34.20
2019-02-24T21:56:12.287Z,34.70
2019-02-24T21:58:38.450Z,34.10
2019-02-24T22:01:04.511Z,34.10
2019-02-24T22:03:30.464Z,34.10
2019-02-24T22:05:56.416Z,34.30
2019-02-24T22:08:22.392Z,34.20
2019-02-24T22:10:48.353Z,34.10
2019-02-24T22:13:14.303Z,34.20
2019-02-24T22:15:40.256Z,34.10
2019-02-24T22:18:06.232Z,34.10
2019-02-24T22:20:32.290Z,34.10
2019-02-24T22:22:58.246Z,34.10
2019-02-24T22:25:24.308Z,34.10
2019-02-24T22:27:50.270Z,34.10
2019-02-24T22:30:16.250Z,34.00
2019-02-24T22:32:42.211Z,34.10
2019-02-24T22:35:08.158Z,34.00
2019-02-24T22:37:34.122Z,34.00
2019-02-24T22:40:00.322Z,33.90
2019-02-24T22:42:26.370Z,33.90
2019-02-24T22:44:52.414Z,33.90
2019-02-24T22:47:18.365Z,33.80
2019-02-24T22:49:44.310Z,33.90
2019-02-24T22:52:10.835Z,33.80
2019-02-24T22:54:36.781Z,33.80
2019-02-24T22:57:02.879Z,34.40
2019-02-24T22:59:28.858Z,33.70
2019-02-24T23:01:54.936Z,33.70
2019-02-24T23:04:20.986Z,33.60
2019-02-24T23:06:46.954Z,33.50
2019-02-24T23:09:12.912Z,34.20
2019-02-24T23:11:38.882Z,33.50
2019-02-24T23:14:04.828Z,33.50
2019-02-24T23:16:30.797Z,33.50
2019-02-24T23:18:56.758Z,34.20
2019-02-24T23:21:22.732Z,33.70
2019-02-24T23:23:48.774Z,33.60
2019-02-24T23:26:14.717Z,33.60
2019-02-24T23:28:40.674Z,33.70
2019-02-24T23:31:06.638Z,33.70
2019-02-24T23:33:32.608Z,33.60
2019-02-24T23:35:58.564Z,33.70
2019-02-24T23:38:44.480Z,33.60
2019-02-24T23:41:10.441Z,33.60
2019-02-24T23:43:36.395Z,33.60
2019-02-24T23:46:02.350Z,33.60
2019-02-24T23:48:28.416Z,33.60
2019-02-24T23:50:54.468Z,33.60
2019-02-24T23:53:20.422Z,33.60
2019-02-24T23:55:46.380Z,33.50
2019-02-24T23:58:12.355Z,33.50
